createdAt,value
2022-11-03T00:00:55.724Z,8.49
2022-11-03T00:04:57.176Z,8.56
2022-11-03T00:09:00.450Z,8.73
2022-11-03T00:13:01.918Z,8.81
2022-11-03T00:17:03.439Z,8.65
2022-11-03T00:21:08.071Z,8.79
2022-11-03T00:25:09.645Z,8.59
2022-11-03T00:29:13.537Z,8.64
2022-11-03T00:33:15.004Z,8.62
2022-11-03T00:37:16.496Z,9.06
2022-11-03T00:41:20.769Z,9.00
2022-11-03T00:45:22.223Z,8.73
2022-11-03T00:49:23.715Z,8.80
2022-11-03T00:53:25.163Z,8.81
2022-11-03T00:57:26.746Z,8.88
2022-11-03T01:01:36.257Z,9.05
2022-11-03T01:06:00.591Z,8.79
2022-11-03T01:10:02.159Z,8.75
2022-11-03T01:14:05.051Z,8.51
2022-11-03T01:18:06.540Z,8.79
2022-11-03T01:22:10.879Z,8.70
2022-11-03T01:26:13.783Z,8.91
2022-11-03T01:30:15.244Z,8.61
2022-11-03T01:34:19.229Z,8.86
2022-11-03T01:38:20.665Z,8.55
2022-11-03T01:42:22.118Z,8.66
2022-11-03T01:46:26.027Z,8.96
2022-11-03T01:50:27.661Z,8.76
2022-11-03T01:54:30.968Z,8.65
2022-11-03T01:58:37.087Z,8.74
2022-11-03T02:02:38.549Z,8.67
2022-11-03T02:06:40.803Z,8.77
2022-11-03T02:10:42.635Z,8.83
2022-11-03T02:14:51.786Z,8.94
2022-11-03T02:18:55.666Z,8.83
2022-11-03T02:23:14.739Z,8.73
2022-11-03T02:27:16.284Z,8.75
2022-11-03T02:31:26.414Z,8.82
2022-11-03T02:35:41.598Z,8.67
2022-11-03T02:39:51.767Z,8.69
2022-11-03T02:43:55.653Z,8.56
2022-11-03T02:48:00.381Z,8.54
2022-11-03T02:52:06.768Z,8.46
2022-11-03T02:56:15.283Z,8.42
2022-11-03T03:00:17.740Z,8.37
2022-11-03T03:04:43.379Z,8.17
2022-11-03T03:08:51.209Z,8.26
2022-11-03T03:12:56.200Z,8.09
2022-11-03T03:17:16.155Z,8.12
2022-11-03T03:21:22.787Z,8.24
2022-11-03T03:25:32.705Z,8.39
2022-11-03T03:29:47.409Z,8.46
2022-11-03T03:33:59.669Z,8.48
2022-11-03T03:38:13.321Z,8.61
2022-11-03T03:42:16.225Z,8.29
2022-11-03T03:46:20.763Z,8.18
2022-11-03T03:50:24.947Z,8.25
2022-11-03T03:54:26.444Z,8.19
2022-11-03T03:58:27.982Z,8.41
2022-11-03T04:02:29.526Z,8.34
2022-11-03T04:06:31.259Z,8.40
2022-11-03T04:10:32.773Z,8.55
2022-11-03T04:14:53.073Z,8.61
2022-11-03T04:19:13.286Z,8.91
2022-11-03T04:23:14.939Z,8.57
2022-11-03T04:27:30.275Z,8.68
2022-11-03T04:31:35.210Z,8.75
2022-11-03T04:35:36.710Z,8.97
2022-11-03T04:39:38.286Z,8.94
2022-11-03T04:43:39.770Z,9.08
2022-11-03T04:47:41.340Z,9.00
2022-11-03T04:51:42.929Z,9.26
2022-11-03T04:55:46.090Z,9.28
2022-11-03T04:59:50.559Z,8.89
2022-11-03T05:03:54.444Z,9.16
2022-11-03T05:07:58.946Z,8.92
2022-11-03T05:12:00.749Z,9.46
2022-11-03T05:16:05.848Z,9.05
2022-11-03T05:20:34.702Z,9.45
2022-11-03T05:24:37.509Z,9.10
2022-11-03T05:28:42.811Z,9.08
2022-11-03T05:32:44.242Z,9.10
2022-11-03T05:36:47.646Z,9.27
2022-11-03T05:40:56.509Z,9.11
2022-11-03T05:45:03.411Z,9.11
2022-11-03T05:49:07.009Z,9.16
2022-11-03T05:53:38.502Z,8.75
2022-11-03T05:57:40.051Z,8.89
2022-11-03T06:02:36.156Z,8.95
2022-11-03T06:06:38.897Z,8.53
2022-11-03T06:10:48.580Z,8.76
2022-11-03T06:14:51.343Z,8.68
2022-11-03T06:18:52.836Z,8.69
2022-11-03T06:22:56.983Z,8.83
2022-11-03T06:26:58.719Z,8.69
2022-11-03T06:31:00.472Z,8.82
2022-11-03T06:35:02.027Z,8.82
2022-11-03T06:39:13.526Z,8.64
2022-11-03T06:43:19.670Z,8.74
2022-11-03T06:47:26.351Z,8.85
2022-11-03T06:51:29.751Z,8.90
2022-11-03T06:55:32.952Z,9.00
2022-11-03T06:59:34.546Z,9.35
2022-11-03T07:03:37.985Z,9.20
2022-11-03T07:07:39.593Z,9.23
2022-11-03T07:11:47.835Z,9.35
2022-11-03T07:15:50.189Z,9.48
2022-11-03T07:19:52.166Z,9.51
2022-11-03T07:23:53.638Z,9.36
2022-11-03T07:27:57.305Z,9.27
2022-11-03T07:32:00.362Z,9.45
2022-11-03T07:36:18.941Z,9.41
2022-11-03T07:40:25.725Z,9.48
2022-11-03T07:44:28.313Z,9.84
2022-11-03T07:48:36.045Z,9.59
2022-11-03T07:52:37.693Z,10.09
2022-11-03T07:56:44.144Z,10.13
2022-11-03T08:00:45.878Z,10.39
2022-11-03T08:04:47.464Z,10.44
2022-11-03T08:08:48.922Z,11.05
2022-11-03T08:12:50.545Z,10.72
2022-11-03T08:16:52.016Z,10.87
2022-11-03T08:20:53.488Z,10.86
2022-11-03T08:24:54.906Z,10.93
2022-11-03T08:28:56.379Z,11.26
2022-11-03T08:32:57.881Z,11.19
2022-11-03T08:36:59.421Z,11.53
2022-11-03T08:41:01.855Z,11.27
2022-11-03T08:45:03.681Z,11.61
2022-11-03T08:49:05.131Z,11.81
2022-11-03T08:53:06.702Z,11.72
2022-11-03T08:57:08.207Z,11.79
2022-11-03T09:01:09.780Z,11.87
2022-11-03T09:05:12.768Z,11.77
2022-11-03T09:13:36.037Z,12.14
2022-11-03T09:17:39.493Z,12.34
2022-11-03T09:21:43.365Z,12.86
2022-11-03T09:25:44.899Z,12.81
2022-11-03T09:30:11.501Z,12.69
2022-11-03T09:34:07.971Z,13.38
2022-11-03T09:38:09.896Z,12.88
2022-11-03T09:42:12.674Z,13.47
2022-11-03T09:46:16.820Z,13.17
2022-11-03T09:50:20.317Z,12.99
2022-11-03T09:54:21.958Z,13.14
2022-11-03T09:58:23.441Z,13.37
2022-11-03T10:02:28.262Z,13.20
2022-11-03T10:06:29.875Z,13.35
2022-11-03T10:10:32.175Z,13.49
2022-11-03T10:14:33.710Z,13.96
2022-11-03T10:18:36.647Z,13.99
2022-11-03T10:22:40.983Z,14.40
2022-11-03T10:26:46.160Z,14.18
2022-11-03T10:31:19.923Z,14.16
2022-11-03T10:35:35.049Z,14.46
2022-11-03T10:39:37.297Z,14.50
2022-11-03T10:43:40.039Z,14.32
2022-11-03T10:47:41.586Z,13.90
2022-11-03T10:51:46.819Z,14.29
2022-11-03T10:55:48.293Z,14.47
2022-11-03T10:59:53.030Z,14.51
2022-11-03T11:03:55.334Z,14.38
2022-11-03T11:07:59.310Z,14.29
2022-11-03T11:12:06.082Z,14.10
2022-11-03T11:16:46.356Z,14.19
2022-11-03T11:20:48.147Z,14.10
2022-11-03T11:24:49.607Z,14.11
2022-11-03T11:29:09.483Z,14.23
2022-11-03T11:33:21.483Z,14.19
2022-11-03T11:37:22.857Z,14.24
2022-11-03T11:42:01.832Z,14.29
2022-11-03T11:46:33.031Z,14.72
2022-11-03T11:50:35.982Z,14.86
2022-11-03T11:54:37.485Z,14.59
2022-11-03T11:58:55.794Z,14.82
2022-11-03T12:02:59.685Z,15.02
2022-11-03T12:07:01.183Z,15.34
2022-11-03T12:11:05.326Z,15.07
2022-11-03T12:15:27.248Z,15.15
2022-11-03T12:19:35.441Z,15.33
2022-11-03T12:23:42.911Z,15.49
2022-11-03T12:27:44.422Z,15.13
2022-11-03T12:31:47.244Z,15.26
2022-11-03T12:35:48.658Z,14.92
2022-11-03T12:39:50.094Z,14.83
2022-11-03T12:43:53.392Z,14.65
2022-11-03T12:47:55.012Z,14.69
2022-11-03T12:51:56.466Z,14.94
2022-11-03T12:55:57.966Z,14.87
2022-11-03T12:59:59.372Z,14.71
2022-11-03T13:04:00.931Z,14.65
2022-11-03T13:08:02.803Z,14.30
2022-11-03T13:12:23.187Z,14.26
2022-11-03T13:16:24.950Z,14.55
2022-11-03T13:20:26.387Z,14.56
2022-11-03T13:24:27.927Z,14.43
2022-11-03T13:28:29.336Z,14.59
2022-11-03T13:32:30.899Z,14.28
2022-11-03T13:36:32.448Z,14.06
2022-11-03T14:06:30.707Z,14.15
2022-11-03T14:10:32.167Z,14.12
2022-11-03T14:14:33.689Z,14.06
2022-11-03T14:18:35.068Z,14.22
2022-11-03T14:22:36.581Z,14.10
2022-11-03T14:26:42.703Z,14.18
2022-11-03T14:30:45.751Z,13.95
2022-11-03T14:34:48.129Z,13.98
2022-11-03T14:38:50.172Z,13.87
2022-11-03T14:42:51.684Z,13.96
2022-11-03T14:46:53.099Z,13.80
2022-11-03T14:50:55.493Z,13.91
2022-11-03T14:55:22.012Z,13.64
2022-11-03T14:59:24.002Z,13.81
2022-11-03T15:03:25.494Z,13.67
2022-11-03T15:07:26.930Z,13.42
2022-11-03T15:11:28.453Z,13.50
2022-11-03T15:15:29.915Z,13.34
2022-11-03T15:19:31.326Z,13.40
2022-11-03T15:27:54.448Z,13.19
2022-11-03T15:31:55.865Z,12.87
2022-11-03T15:35:57.412Z,13.22
2022-11-03T15:39:59.927Z,13.11
2022-11-03T15:44:04.230Z,12.70
2022-11-03T15:48:05.849Z,12.73
2022-11-03T15:52:09.588Z,12.96
2022-11-03T15:56:11.184Z,12.85
2022-11-03T16:00:13.035Z,12.75
2022-11-03T16:04:16.168Z,12.80
2022-11-03T16:08:17.612Z,12.62
2022-11-03T16:12:19.082Z,12.80
2022-11-03T16:51:46.462Z,12.35
2022-11-03T16:55:49.435Z,12.42
2022-11-03T16:59:51.634Z,12.34
2022-11-03T17:03:54.012Z,12.33
2022-11-03T17:07:55.404Z,12.41
2022-11-03T17:11:56.845Z,12.34
2022-11-03T17:15:58.345Z,11.96
2022-11-03T17:19:59.794Z,11.99
2022-11-03T17:24:01.367Z,12.08
2022-11-03T17:28:04.140Z,12.03
2022-11-03T17:32:10.666Z,12.20
2022-11-03T17:36:12.189Z,12.02
2022-11-03T17:40:18.613Z,12.09
2022-11-03T17:44:20.074Z,12.02
2022-11-03T17:48:23.132Z,11.76
2022-11-03T17:52:28.651Z,11.78
2022-11-03T17:56:31.261Z,11.72
2022-11-03T18:00:33.773Z,11.82
2022-11-03T18:04:35.208Z,11.61
2022-11-03T18:08:36.600Z,11.61
2022-11-03T18:13:01.189Z,11.69
2022-11-03T18:17:02.733Z,11.78
2022-11-03T18:21:04.895Z,11.57
2022-11-03T18:25:15.341Z,11.61
2022-11-03T18:29:16.822Z,11.56
2022-11-03T18:33:29.390Z,11.44
2022-11-03T18:37:32.642Z,11.38
2022-11-03T18:41:38.982Z,11.46
2022-11-03T18:45:40.634Z,11.28
2022-11-03T18:49:42.150Z,11.62
2022-11-03T18:53:44.087Z,11.41
2022-11-03T18:57:45.830Z,11.35
2022-11-03T19:01:47.535Z,11.40
2022-11-03T19:05:51.655Z,11.35
2022-11-03T19:09:53.319Z,11.64
2022-11-03T19:13:54.962Z,11.31
2022-11-03T19:17:57.740Z,11.35
2022-11-03T19:21:59.151Z,11.30
2022-11-03T19:26:00.707Z,11.42
2022-11-03T19:30:04.216Z,11.26
2022-11-03T19:34:11.245Z,11.42
2022-11-03T19:38:15.302Z,11.45
2022-11-03T19:42:28.538Z,11.47
2022-11-03T19:46:30.123Z,11.51
2022-11-03T19:50:33.154Z,11.64
2022-11-03T19:54:34.592Z,11.58
2022-11-03T19:58:36.020Z,11.69
2022-11-03T20:02:37.511Z,11.81
2022-11-03T20:06:40.924Z,11.74
2022-11-03T20:10:44.083Z,11.64
2022-11-03T20:14:45.690Z,11.63
2022-11-03T20:18:48.765Z,11.57
2022-11-03T20:22:55.337Z,11.47
2022-11-03T20:26:56.921Z,11.51
2022-11-03T20:31:00.927Z,11.35
2022-11-03T20:35:02.441Z,11.26
2022-11-03T20:39:04.390Z,11.24
2022-11-03T20:43:07.466Z,11.46
2022-11-03T20:47:12.723Z,11.10
2022-11-03T20:51:15.909Z,10.75
2022-11-03T20:55:26.478Z,11.29
2022-11-03T20:59:30.152Z,11.05
2022-11-03T21:04:00.856Z,10.97
2022-11-03T21:07:55.632Z,10.92
2022-11-03T21:11:57.095Z,10.95
2022-11-03T21:16:24.665Z,10.92
2022-11-03T21:20:26.349Z,11.02
2022-11-03T21:24:27.853Z,10.80
2022-11-03T21:28:29.292Z,10.66
2022-11-03T21:32:30.724Z,10.69
2022-11-03T21:36:32.141Z,10.67
2022-11-03T21:40:33.717Z,10.83
2022-11-03T21:44:36.202Z,10.97
2022-11-03T21:48:57.635Z,10.77
2022-11-03T21:52:59.174Z,10.79
2022-11-03T21:57:00.582Z,10.63
2022-11-03T22:01:04.898Z,10.68
2022-11-03T22:05:10.769Z,10.64
2022-11-03T22:09:12.625Z,10.69
2022-11-03T22:13:14.083Z,10.64
2022-11-03T22:17:17.383Z,10.78
2022-11-03T22:21:37.510Z,10.73
2022-11-03T22:26:14.331Z,10.89
2022-11-03T22:30:34.378Z,10.76
2022-11-03T22:34:54.369Z,10.91
2022-11-03T22:39:14.881Z,10.61
2022-11-03T22:43:35.082Z,10.69
2022-11-03T22:47:36.439Z,10.82
2022-11-03T22:51:37.827Z,10.99
2022-11-03T22:55:39.259Z,10.92
2022-11-03T22:59:41.074Z,11.04
2022-11-03T23:03:45.148Z,10.72
2022-11-03T23:07:46.556Z,11.00
2022-11-03T23:11:48.197Z,10.79
2022-11-03T23:15:49.606Z,10.99
2022-11-03T23:20:10.059Z,10.66
2022-11-03T23:24:30.641Z,10.93
2022-11-03T23:28:32.055Z,10.74
2022-11-03T23:32:33.482Z,10.75
2022-11-03T23:36:35.000Z,10.88
2022-11-03T23:40:36.438Z,10.72
2022-11-03T23:44:56.590Z,10.76
2022-11-03T23:48:58.729Z,10.68
2022-11-03T23:53:00.174Z,10.78
2022-11-03T23:57:20.570Z,10.98
